Time;durP1;ratioP1;P1;durP2;ratioP2;P2;SDS_P1;SDS_P2;PMS_P1;PMS_P2;Temp;Humidity;BMP_temperature;BMP_pressure;BME280_temperature;BME280_humidity;BME280_pressure;Samples;Min_cycle;Max_cycle;Signal;HPM_P1;HPM_P2
2023/12/29 00:01:36;;;;;;;;;;;;;;;6.41;62.52;99525.69;4405669;32;34194;-85
2023/12/29 00:04:04;;;;;;;;;;;;;;;6.43;62.30;99521.44;4403118;32;34037;-87
2023/12/29 00:06:31;;;;;;;;;;;;;;;6.37;62.44;99526.41;4404289;32;35052;-87
2023/12/29 00:09:00;;;;;;;;;;;;;;;6.30;62.81;99523.59;4405387;32;32924;-86
2023/12/29 00:11:27;;;;;;;;;;;;;;;6.23;63.11;99516.47;4400109;32;33754;-87
2023/12/29 00:13:54;;;;;;;;;;;;;;;6.30;63.13;99515.88;4397422;32;34377;-87
2023/12/29 00:16:22;;;;;;;;;;;;;;;6.24;63.25;99514.78;4398662;32;34224;-87
2023/12/29 00:18:49;;;;;;;;;;;;;;;6.34;63.32;99519.44;4390391;32;34040;-87
2023/12/29 00:21:17;;;;;;;;;;;;;;;6.44;62.73;99510.31;4391540;32;33970;-87
2023/12/29 00:23:47;;;;;;;;;;;;;;;6.41;62.67;99502.50;4413884;32;34041;-86
2023/12/29 00:26:17;;;;;;;;;;;;;;;6.31;63.24;99494.44;4391535;32;33335;-87
2023/12/29 00:28:46;;;;;;;;;;;;;;;6.40;62.83;99495.59;4408492;32;32981;-87
2023/12/29 00:31:15;;;;;;;;;;;;;;;6.36;62.83;99497.16;4402519;32;34192;-87
2023/12/29 00:33:45;;;;;;;;;;;;;;;6.20;63.56;99506.06;4416339;32;34889;-88
2023/12/29 00:36:16;;;;;;;;;;;;;;;6.18;63.96;99505.16;4405654;32;33859;-89
2023/12/29 00:38:44;;;;;;;;;;;;;;;6.29;63.97;99496.09;4405479;32;33432;-85
2023/12/29 00:41:11;;;;;;;;;;;;;;;6.29;64.31;99493.53;4405625;32;34847;-86
2023/12/29 00:43:38;;;;;;;;;;;;;;;6.44;63.85;99494.84;4405281;32;34227;-85
2023/12/29 00:46:05;;;;;;;;;;;;;;;6.38;64.02;99499.81;4416056;32;34221;-84
2023/12/29 00:48:33;;;;;;;;;;;;;;;6.44;63.98;99500.00;4410525;32;33370;-85
2023/12/29 00:51:01;;;;;;;;;;;;;;;6.50;63.63;99489.94;4403492;32;34255;-87
2023/12/29 00:53:29;;;;;;;;;;;;;;;6.42;64.05;99481.06;4403972;32;34298;-85
2023/12/29 00:55:57;;;;;;;;;;;;;;;6.47;64.13;99493.28;4415629;32;33997;-87
2023/12/29 00:58:24;;;;;;;;;;;;;;;6.47;64.23;99489.81;4403188;32;34041;-87
2023/12/29 01:00:53;;;;;;;;;;;;;;;6.52;64.09;99484.03;4415590;32;33809;-87
2023/12/29 01:03:21;;;;;;;;;;;;;;;6.53;63.97;99490.03;4403365;32;32889;-86
2023/12/29 01:05:52;;;;;;;;;;;;;;;6.53;64.19;99490.03;4405030;32;34245;-87
2023/12/29 01:08:19;;;;;;;;;;;;;;;6.57;64.06;99481.59;4415856;32;33878;-85
2023/12/29 01:10:47;;;;;;;;;;;;;;;6.65;63.70;99492.16;4403445;32;34609;-87
2023/12/29 01:13:14;;;;;;;;;;;;;;;6.57;63.70;99497.91;4404655;32;34219;-86
2023/12/29 01:15:45;;;;;;;;;;;;;;;6.41;64.81;99495.66;4404901;32;34129;-87
2023/12/29 01:18:13;;;;;;;;;;;;;;;6.38;65.09;99497.25;4401438;32;33058;-86
2023/12/29 01:20:41;;;;;;;;;;;;;;;6.46;65.01;99500.97;4398986;32;32522;-85
2023/12/29 01:23:08;;;;;;;;;;;;;;;6.57;64.62;99497.91;4397480;32;34353;-87
2023/12/29 01:25:36;;;;;;;;;;;;;;;6.44;65.05;99500.00;4397993;32;35118;-86
2023/12/29 01:28:03;;;;;;;;;;;;;;;6.60;64.71;99502.31;4395657;32;34443;-86
2023/12/29 01:30:31;;;;;;;;;;;;;;;6.61;64.22;99488.59;4395569;32;34892;-88
2023/12/29 01:33:01;;;;;;;;;;;;;;;6.56;64.56;99493.59;4398147;32;35371;-87
2023/12/29 01:35:29;;;;;;;;;;;;;;;6.43;64.66;99496.56;4401402;32;34097;-85
2023/12/29 01:38:00;;;;;;;;;;;;;;;6.27;65.29;99491.72;4420195;32;33100;-87
2023/12/29 01:40:31;;;;;;;;;;;;;;;6.28;65.33;99484.03;4398708;32;34165;-85
2023/12/29 01:43:01;;;;;;;;;;;;;;;6.39;64.79;99480.97;4399406;32;33489;-85
2023/12/29 01:45:29;;;;;;;;;;;;;;;6.28;65.10;99489.19;4398182;32;34220;-85
2023/12/29 01:47:57;;;;;;;;;;;;;;;6.23;65.43;99480.44;4393517;32;33885;-85
2023/12/29 01:50:25;;;;;;;;;;;;;;;6.19;65.51;99468.28;4390372;32;33411;-85
2023/12/29 01:52:53;;;;;;;;;;;;;;;6.25;64.68;99473.66;4394952;32;34079;-85
2023/12/29 01:55:21;;;;;;;;;;;;;;;6.17;65.12;99472.47;4405686;32;33918;-87
2023/12/29 01:57:49;;;;;;;;;;;;;;;6.26;65.05;99459.94;4417771;32;33451;-87
2023/12/29 02:00:17;;;;;;;;;;;;;;;6.28;64.86;99462.56;4417882;32;34973;-87
2023/12/29 02:02:47;;;;;;;;;;;;;;;6.30;64.66;99459.22;4417686;32;34418;-86
2023/12/29 02:05:16;;;;;;;;;;;;;;;6.22;65.23;99458.09;4406468;32;34352;-86
2023/12/29 02:07:43;;;;;;;;;;;;;;;6.05;65.68;99456.62;4417026;32;32769;-86
2023/12/29 02:10:13;;;;;;;;;;;;;;;6.10;65.97;99455.09;4406408;32;33622;-87
2023/12/29 02:12:44;;;;;;;;;;;;;;;6.19;65.93;99447.69;4399871;32;35116;-86
2023/12/29 02:15:13;;;;;;;;;;;;;;;6.19;65.69;99452.84;4414673;32;36715;-85
2023/12/29 02:17:45;;;;;;;;;;;;;;;6.03;66.89;99456.56;4399620;32;33327;-86
2023/12/29 02:20:12;;;;;;;;;;;;;;;6.20;66.45;99456.28;4415867;32;34149;-84
2023/12/29 02:22:40;;;;;;;;;;;;;;;6.11;66.46;99455.97;4412519;32;34073;-85
2023/12/29 02:25:09;;;;;;;;;;;;;;;5.92;66.87;99450.16;4397545;32;33603;-85
2023/12/29 02:27:43;;;;;;;;;;;;;;;6.18;66.43;99445.94;4420920;32;33011;-85
2023/12/29 02:30:18;;;;;;;;;;;;;;;6.27;65.67;99443.66;4398188;32;34129;-87
2023/12/29 02:32:47;;;;;;;;;;;;;;;6.18;65.60;99443.38;4396445;32;35249;-88
2023/12/29 02:35:18;;;;;;;;;;;;;;;6.38;64.82;99446.63;4417406;32;33371;-86
2023/12/29 02:37:45;;;;;;;;;;;;;;;5.88;65.84;99453.44;4424759;32;34307;-87
2023/12/29 02:40:14;;;;;;;;;;;;;;;5.79;67.04;99456.50;4396680;32;34135;-87
2023/12/29 02:42:47;;;;;;;;;;;;;;;5.98;66.61;99457.22;4384390;32;32989;-87
2023/12/29 02:45:15;;;;;;;;;;;;;;;6.11;66.19;99451.69;4397959;32;34178;-87
2023/12/29 02:47:42;;;;;;;;;;;;;;;6.13;65.97;99446.59;4399198;32;32134;-88
2023/12/29 02:50:10;;;;;;;;;;;;;;;6.24;65.72;99446.13;4399500;32;35303;-87
2023/12/29 02:52:37;;;;;;;;;;;;;;;6.03;66.43;99437.69;4401147;32;34085;-87
2023/12/29 02:55:05;;;;;;;;;;;;;;;6.07;65.82;99440.41;4403169;32;34024;-86
2023/12/29 02:57:32;;;;;;;;;;;;;;;5.70;67.08;99448.47;4417300;32;32847;-86
2023/12/29 03:00:00;;;;;;;;;;;;;;;5.83;66.85;99434.34;4400501;32;34244;-88
2023/12/29 03:02:28;;;;;;;;;;;;;;;5.83;67.02;99442.97;4394376;32;34158;-87
2023/12/29 03:04:55;;;;;;;;;;;;;;;6.01;66.71;99427.31;4402217;32;34399;-86
2023/12/29 03:07:22;;;;;;;;;;;;;;;5.95;67.16;99426.25;4403037;32;33758;-87
2023/12/29 03:09:50;;;;;;;;;;;;;;;6.00;67.04;99420.44;4403993;32;34324;-87
2023/12/29 03:12:17;;;;;;;;;;;;;;;6.12;66.83;99425.12;4402174;32;34316;-87
2023/12/29 03:14:47;;;;;;;;;;;;;;;6.30;65.98;99419.75;4394919;32;34522;-86
2023/12/29 03:17:14;;;;;;;;;;;;;;;6.34;65.82;99422.47;4391322;32;33019;-88
2023/12/29 03:19:41;;;;;;;;;;;;;;;6.15;66.70;99421.78;4409710;32;34722;-86
2023/12/29 03:22:10;;;;;;;;;;;;;;;6.19;66.93;99415.91;4377682;32;32523;-86
2023/12/29 03:24:39;;;;;;;;;;;;;;;6.22;66.86;99411.75;4391207;32;34812;-86
2023/12/29 03:27:07;;;;;;;;;;;;;;;6.41;66.34;99417.53;4387055;32;33767;-86
2023/12/29 03:29:35;;;;;;;;;;;;;;;6.20;67.22;99417.66;4380925;32;32854;-85
2023/12/29 03:32:03;;;;;;;;;;;;;;;6.17;67.36;99413.28;4413768;32;33971;-88
2023/12/29 03:34:30;;;;;;;;;;;;;;;6.29;66.70;99420.56;4403858;32;34045;-87
2023/12/29 03:36:57;;;;;;;;;;;;;;;6.09;67.35;99425.00;4416918;32;34140;-88
2023/12/29 03:39:25;;;;;;;;;;;;;;;6.12;67.05;99430.28;4401241;32;34394;-87
2023/12/29 03:41:52;;;;;;;;;;;;;;;6.15;67.15;99425.22;4404694;32;34894;-87
2023/12/29 03:44:19;;;;;;;;;;;;;;;6.09;67.48;99427.59;4390932;32;33288;-87
2023/12/29 03:46:49;;;;;;;;;;;;;;;6.05;67.42;99421.44;4404237;32;32570;-87
2023/12/29 03:49:16;;;;;;;;;;;;;;;6.06;66.83;99425.81;4389560;32;32508;-88
2023/12/29 03:51:44;;;;;;;;;;;;;;;6.04;66.90;99418.84;4371342;32;32873;-87
2023/12/29 03:54:11;;;;;;;;;;;;;;;6.05;66.86;99420.59;4382193;32;33893;-85
2023/12/29 03:56:38;;;;;;;;;;;;;;;6.20;66.07;99415.97;4403439;32;31840;-88
2023/12/29 03:59:06;;;;;;;;;;;;;;;6.17;66.05;99423.56;4375522;32;34337;-86
2023/12/29 04:01:34;;;;;;;;;;;;;;;5.95;66.13;99418.53;4395509;32;32701;-87
2023/12/29 04:04:02;;;;;;;;;;;;;;;6.06;65.95;99419.75;4416910;32;34103;-87
2023/12/29 04:06:29;;;;;;;;;;;;;;;5.91;66.19;99425.22;4392234;32;32195;-86
2023/12/29 04:08:57;;;;;;;;;;;;;;;6.09;65.78;99425.00;4386579;32;34429;-85
2023/12/29 04:11:24;;;;;;;;;;;;;;;6.15;65.19;99424.38;4387018;32;33767;-86
2023/12/29 04:13:52;;;;;;;;;;;;;;;6.09;65.10;99417.28;4386494;32;32754;-85
2023/12/29 04:16:19;;;;;;;;;;;;;;;6.14;65.18;99426.06;4386872;32;32608;-86
2023/12/29 04:18:47;;;;;;;;;;;;;;;6.11;64.61;99417.38;4391297;32;34191;-85
2023/12/29 04:21:15;;;;;;;;;;;;;;;5.97;64.80;99425.47;4391450;32;35165;-86
2023/12/29 04:23:42;;;;;;;;;;;;;;;5.59;65.36;99424.94;4397145;32;34025;-88
2023/12/29 04:26:09;;;;;;;;;;;;;;;5.83;65.16;99431.78;4405531;32;33088;-88
2023/12/29 04:28:36;;;;;;;;;;;;;;;5.88;65.15;99421.69;4392364;32;33432;-86
2023/12/29 04:31:04;;;;;;;;;;;;;;;6.00;64.93;99430.72;4401625;32;34627;-87
2023/12/29 04:33:31;;;;;;;;;;;;;;;6.10;64.43;99431.94;4404840;32;35024;-86
2023/12/29 04:35:59;;;;;;;;;;;;;;;5.92;65.02;99436.41;4405085;32;33211;-88
2023/12/29 04:38:26;;;;;;;;;;;;;;;6.00;64.52;99440.16;4404903;32;33869;-87
2023/12/29 04:40:54;;;;;;;;;;;;;;;5.75;65.34;99439.22;4416533;32;33920;-86
2023/12/29 04:43:21;;;;;;;;;;;;;;;5.77;65.68;99429.87;4405412;32;33950;-88
2023/12/29 04:45:49;;;;;;;;;;;;;;;5.90;65.13;99428.59;4404872;32;33607;-88
2023/12/29 04:48:16;;;;;;;;;;;;;;;5.79;65.25;99427.34;4404983;32;34104;-88
2023/12/29 04:50:43;;;;;;;;;;;;;;;5.80;65.33;99426.56;4402545;32;34055;-87
2023/12/29 04:53:11;;;;;;;;;;;;;;;5.83;65.69;99427.53;4402307;32;33747;-88
2023/12/29 04:55:38;;;;;;;;;;;;;;;5.94;64.93;99424.47;4404739;32;33783;-87
2023/12/29 04:58:06;;;;;;;;;;;;;;;5.76;65.44;99432.41;4408298;32;34232;-87
2023/12/29 05:00:33;;;;;;;;;;;;;;;5.77;65.41;99424.72;4408477;32;35066;-87
2023/12/29 05:03:01;;;;;;;;;;;;;;;5.89;64.86;99420.84;4409588;32;35081;-87
2023/12/29 05:05:28;;;;;;;;;;;;;;;5.57;65.65;99425.72;4409499;32;33316;-87
2023/12/29 05:07:55;;;;;;;;;;;;;;;5.31;66.12;99435.91;4409700;32;33660;-87
2023/12/29 05:10:23;;;;;;;;;;;;;;;5.09;67.54;99433.31;4408859;32;34869;-88
2023/12/29 05:12:50;;;;;;;;;;;;;;;5.51;65.85;99420.34;4409070;32;33705;-88
2023/12/29 05:15:17;;;;;;;;;;;;;;;5.41;66.11;99426.81;4408926;32;32816;-88
2023/12/29 05:17:45;;;;;;;;;;;;;;;5.56;65.75;99426.50;4409779;32;33744;-87
2023/12/29 05:20:12;;;;;;;;;;;;;;;5.54;65.42;99418.75;4408015;32;34141;-85
2023/12/29 05:22:40;;;;;;;;;;;;;;;5.36;65.95;99418.06;4407515;32;33529;-88
2023/12/29 05:25:07;;;;;;;;;;;;;;;5.76;64.88;99429.84;4409352;32;32775;-87
2023/12/29 05:27:35;;;;;;;;;;;;;;;5.68;64.54;99429.53;4420050;32;35021;-87
2023/12/29 05:30:05;;;;;;;;;;;;;;;5.71;64.26;99429.63;4407031;32;35116;-86
2023/12/29 05:32:32;;;;;;;;;;;;;;;5.54;64.62;99429.03;4409072;32;34019;-87
2023/12/29 05:34:59;;;;;;;;;;;;;;;5.62;64.55;99437.03;4407614;32;33477;-87
2023/12/29 05:37:27;;;;;;;;;;;;;;;5.05;65.83;99447.75;4400201;32;34957;-87
2023/12/29 05:39:54;;;;;;;;;;;;;;;5.15;65.44;99442.94;4405741;32;34204;-86
2023/12/29 05:42:22;;;;;;;;;;;;;;;5.45;64.85;99453.53;4407941;32;33830;-88
2023/12/29 05:44:49;;;;;;;;;;;;;;;5.28;64.80;99451.19;4417222;32;33015;-85
2023/12/29 05:47:17;;;;;;;;;;;;;;;5.44;64.29;99452.66;4408918;32;36287;-87
2023/12/29 05:49:45;;;;;;;;;;;;;;;5.35;64.69;99448.06;4408916;32;35077;-87
2023/12/29 05:52:12;;;;;;;;;;;;;;;5.58;63.93;99451.47;4417993;32;33903;-87
2023/12/29 05:54:40;;;;;;;;;;;;;;;5.57;63.68;99448.88;4404525;32;33565;-87
2023/12/29 05:57:07;;;;;;;;;;;;;;;5.54;64.00;99448.75;4408386;32;34822;-87
2023/12/29 05:59:34;;;;;;;;;;;;;;;5.35;64.56;99445.47;4396967;32;34901;-87
2023/12/29 06:02:02;;;;;;;;;;;;;;;5.18;65.13;99454.22;4400155;32;33214;-88
2023/12/29 06:04:30;;;;;;;;;;;;;;;5.11;65.55;99445.44;4408867;32;33417;-87
2023/12/29 06:06:57;;;;;;;;;;;;;;;5.10;65.82;99445.34;4409302;32;34108;-88
2023/12/29 06:09:24;;;;;;;;;;;;;;;5.14;65.75;99449.78;4405795;32;33909;-86
2023/12/29 06:11:52;;;;;;;;;;;;;;;5.33;65.38;99454.81;4404161;32;33524;-87
2023/12/29 06:14:19;;;;;;;;;;;;;;;5.11;65.81;99457.38;4417180;32;33311;-87
2023/12/29 06:16:46;;;;;;;;;;;;;;;5.07;66.10;99455.50;4403966;32;33422;-87
2023/12/29 06:19:14;;;;;;;;;;;;;;;5.27;65.33;99464.88;4404999;32;34244;-87
2023/12/29 06:21:43;;;;;;;;;;;;;;;5.19;65.59;99465.38;4405528;32;33794;-88
2023/12/29 06:24:11;;;;;;;;;;;;;;;5.33;65.15;99462.53;4404356;32;34288;-87
2023/12/29 06:26:42;;;;;;;;;;;;;;;5.23;65.24;99470.72;4403169;32;34073;-87
2023/12/29 06:29:10;;;;;;;;;;;;;;;5.36;64.85;99470.34;4400356;32;34478;-87
2023/12/29 06:31:41;;;;;;;;;;;;;;;5.29;65.28;99467.50;4395819;32;33723;-87
2023/12/29 06:34:09;;;;;;;;;;;;;;;5.44;64.55;99474.91;4406588;32;33207;-88
2023/12/29 06:36:37;;;;;;;;;;;;;;;5.42;64.60;99473.97;4405616;32;33658;-86
2023/12/29 06:39:04;;;;;;;;;;;;;;;5.46;64.54;99465.59;4393015;32;33903;-88
2023/12/29 06:41:32;;;;;;;;;;;;;;;5.44;65.02;99459.50;4406136;32;33994;-87
2023/12/29 06:43:59;;;;;;;;;;;;;;;5.72;64.02;99461.38;4417747;32;32565;-87
2023/12/29 06:46:26;;;;;;;;;;;;;;;5.66;63.69;99466.31;4405948;32;34802;-87
2023/12/29 06:48:54;;;;;;;;;;;;;;;5.54;64.08;99465.03;4417748;32;34389;-88
2023/12/29 06:51:23;;;;;;;;;;;;;;;5.47;64.71;99462.19;4406002;32;34458;-88
2023/12/29 06:53:50;;;;;;;;;;;;;;;5.64;64.32;99463.66;4406026;32;33496;-87
2023/12/29 06:56:18;;;;;;;;;;;;;;;5.74;63.71;99467.47;4417739;32;34328;-87
2023/12/29 06:58:45;;;;;;;;;;;;;;;5.64;63.97;99466.25;4406067;32;34317;-86
2023/12/29 07:01:13;;;;;;;;;;;;;;;5.59;64.48;99462.63;4412054;32;34921;-86
2023/12/29 07:03:41;;;;;;;;;;;;;;;5.76;64.12;99471.00;4402375;32;33159;-85
2023/12/29 07:06:09;;;;;;;;;;;;;;;5.64;64.50;99457.66;4405478;32;33874;-86
2023/12/29 07:08:36;;;;;;;;;;;;;;;5.77;64.31;99467.59;4405862;32;34375;-86
2023/12/29 07:11:04;;;;;;;;;;;;;;;5.88;63.65;99465.41;4404370;32;34097;-86
2023/12/29 07:13:31;;;;;;;;;;;;;;;5.78;63.72;99467.63;4405680;32;34474;-86
2023/12/29 07:15:58;;;;;;;;;;;;;;;5.00;65.22;99474.97;4404113;32;33442;-85
2023/12/29 07:18:26;;;;;;;;;;;;;;;5.25;65.08;99479.34;4405301;32;34468;-85
2023/12/29 07:20:53;;;;;;;;;;;;;;;5.40;64.33;99473.06;4404507;32;33926;-87
2023/12/29 07:23:20;;;;;;;;;;;;;;;5.24;64.83;99469.91;4404980;32;33402;-86
2023/12/29 07:25:48;;;;;;;;;;;;;;;5.47;64.42;99478.50;4405906;32;34738;-87
2023/12/29 07:28:15;;;;;;;;;;;;;;;5.36;64.34;99482.34;4406097;32;34803;-86
2023/12/29 07:30:43;;;;;;;;;;;;;;;5.44;64.25;99480.06;4414660;32;34313;-87
2023/12/29 07:33:10;;;;;;;;;;;;;;;5.43;64.36;99478.31;4404676;32;33014;-84
2023/12/29 07:35:38;;;;;;;;;;;;;;;5.49;64.54;99481.09;4402748;32;33809;-87
2023/12/29 07:38:05;;;;;;;;;;;;;;;5.44;64.51;99487.78;4405458;32;34386;-87
2023/12/29 07:40:32;;;;;;;;;;;;;;;4.76;66.26;99490.25;4404685;32;34799;-85
2023/12/29 07:43:00;;;;;;;;;;;;;;;4.77;66.91;99483.41;4405141;32;33057;-87
2023/12/29 07:45:27;;;;;;;;;;;;;;;5.36;64.64;99484.91;4405312;32;34507;-87
2023/12/29 07:47:55;;;;;;;;;;;;;;;5.39;64.63;99476.44;4404578;32;35127;-86
2023/12/29 07:50:23;;;;;;;;;;;;;;;5.35;64.70;99475.47;4403703;32;35126;-86
2023/12/29 07:52:50;;;;;;;;;;;;;;;5.40;64.70;99478.19;4404817;32;33001;-86
2023/12/29 07:55:17;;;;;;;;;;;;;;;5.28;65.37;99469.19;4405015;32;34899;-86
2023/12/29 07:57:46;;;;;;;;;;;;;;;5.15;66.59;99463.50;4404317;32;34048;-87
2023/12/29 08:00:14;;;;;;;;;;;;;;;5.25;67.05;99466.50;4402267;32;34439;-86
2023/12/29 08:02:42;;;;;;;;;;;;;;;5.37;67.28;99461.81;4401956;32;34342;-87
2023/12/29 08:05:09;;;;;;;;;;;;;;;5.43;67.83;99460.31;4404057;32;34053;-86
2023/12/29 08:07:39;;;;;;;;;;;;;;;5.34;68.75;99461.72;4404904;32;35156;-86
2023/12/29 08:10:07;;;;;;;;;;;;;;;5.62;68.15;99463.62;4403422;32;34794;-85
2023/12/29 08:12:35;;;;;;;;;;;;;;;5.68;68.17;99470.69;4396740;32;32710;-86
2023/12/29 08:15:03;;;;;;;;;;;;;;;5.44;69.53;99474.91;4404729;32;34013;-85
2023/12/29 08:17:32;;;;;;;;;;;;;;;4.69;69.99;99482.22;4405839;32;33678;-86
2023/12/29 08:19:59;;;;;;;;;;;;;;;5.14;68.93;99488.34;4405727;32;34203;-85
2023/12/29 08:22:29;;;;;;;;;;;;;;;5.12;70.84;99497.69;4416571;32;32784;-84
2023/12/29 08:24:56;;;;;;;;;;;;;;;5.12;73.44;99510.53;4403950;32;33968;-87
2023/12/29 08:27:25;;;;;;;;;;;;;;;5.26;71.24;99493.94;4404804;32;35337;-86
2023/12/29 08:29:53;;;;;;;;;;;;;;;4.52;69.92;99489.25;4402690;32;33628;-87
2023/12/29 08:32:22;;;;;;;;;;;;;;;5.02;68.17;99490.44;4398963;32;33263;-87
2023/12/29 08:34:49;;;;;;;;;;;;;;;4.74;68.39;99496.16;4399560;32;34286;-89
2023/12/29 08:37:19;;;;;;;;;;;;;;;3.98;71.62;99496.31;4397877;32;34102;-89
2023/12/29 08:39:48;;;;;;;;;;;;;;;4.57;70.48;99496.31;4400412;32;34290;-85
2023/12/29 08:42:16;;;;;;;;;;;;;;;4.76;70.42;99499.66;4395806;32;32773;-87
2023/12/29 08:44:43;;;;;;;;;;;;;;;4.67;70.94;99497.59;4410957;32;33616;-84
2023/12/29 08:47:10;;;;;;;;;;;;;;;5.07;70.12;99501.75;4397114;32;34196;-84
2023/12/29 08:49:38;;;;;;;;;;;;;;;4.71;72.06;99491.75;4414096;32;34251;-85
2023/12/29 08:52:05;;;;;;;;;;;;;;;4.80;71.67;99499.81;4416673;32;33775;-86
2023/12/29 08:54:33;;;;;;;;;;;;;;;4.96;71.97;99505.59;4416241;32;33695;-88
2023/12/29 08:57:01;;;;;;;;;;;;;;;5.05;71.79;99503.41;4404468;32;35164;-87
2023/12/29 08:59:28;;;;;;;;;;;;;;;5.30;71.18;99505.22;4397234;32;34357;-88
2023/12/29 09:01:56;;;;;;;;;;;;;;;5.34;71.40;99504.53;4400476;32;33884;-85
2023/12/29 09:04:23;;;;;;;;;;;;;;;5.73;70.45;99496.59;4404163;32;34190;-87
2023/12/29 09:06:50;;;;;;;;;;;;;;;5.61;71.01;99502.16;4400014;32;35194;-86
2023/12/29 09:09:18;;;;;;;;;;;;;;;5.70;71.82;99506.78;4390723;32;35214;-86
2023/12/29 09:11:46;;;;;;;;;;;;;;;5.71;72.21;99505.94;4390073;32;33381;-88
2023/12/29 09:14:13;;;;;;;;;;;;;;;5.87;73.78;99508.25;4417110;32;34175;-86
2023/12/29 09:16:46;;;;;;;;;;;;;;;5.94;73.87;99504.25;4418269;32;34048;-85
2023/12/29 09:19:13;;;;;;;;;;;;;;;6.07;73.92;99493.59;4403401;32;34654;-86
2023/12/29 09:21:57;;;;;;;;;;;;;;;6.16;75.37;99488.75;4404981;32;32938;-88
2023/12/29 09:24:24;;;;;;;;;;;;;;;6.14;76.39;99485.28;4415743;32;33522;-91
2023/12/29 09:26:52;;;;;;;;;;;;;;;6.38;75.94;99485.25;4402175;32;34499;-89
2023/12/29 09:29:19;;;;;;;;;;;;;;;6.71;75.15;99482.06;4404721;32;33685;-90
2023/12/29 09:31:46;;;;;;;;;;;;;;;6.74;75.43;99479.56;4403760;32;32609;-91
2023/12/29 09:34:17;;;;;;;;;;;;;;;6.91;75.21;99467.25;4402713;32;33573;-88
2023/12/29 09:36:44;;;;;;;;;;;;;;;7.04;75.07;99469.38;4403166;32;34420;-89
2023/12/29 09:39:12;;;;;;;;;;;;;;;7.25;74.21;99482.06;4402000;32;33744;-89
2023/12/29 09:41:39;;;;;;;;;;;;;;;6.99;75.12;99492.44;4402838;32;33767;-89
2023/12/29 09:44:07;;;;;;;;;;;;;;;7.14;75.10;99481.72;4415469;32;34159;-88
2023/12/29 09:46:34;;;;;;;;;;;;;;;7.18;74.81;99488.72;4416226;32;35142;-89
2023/12/29 09:49:03;;;;;;;;;;;;;;;7.25;74.35;99485.53;4416516;32;35328;-91
2023/12/29 09:51:31;;;;;;;;;;;;;;;7.09;73.98;99482.44;4417588;32;33872;-90
2023/12/29 09:53:58;;;;;;;;;;;;;;;7.21;73.94;99487.97;4406573;32;33819;-89
2023/12/29 09:56:26;;;;;;;;;;;;;;;7.26;73.30;99484.69;4418975;32;33967;-86
2023/12/29 09:58:54;;;;;;;;;;;;;;;7.55;73.12;99484.72;4403714;32;35076;-93
2023/12/29 10:01:24;;;;;;;;;;;;;;;7.14;74.34;99486.88;4405435;32;34059;-91
2023/12/29 10:03:53;;;;;;;;;;;;;;;7.48;72.75;99481.06;4415611;32;34175;-90
2023/12/29 10:06:23;;;;;;;;;;;;;;;7.69;71.89;99465.34;4404875;32;32785;-88
2023/12/29 10:08:50;;;;;;;;;;;;;;;7.70;71.89;99459.34;4416084;32;34012;-85
2023/12/29 10:11:18;;;;;;;;;;;;;;;7.93;70.96;99451.38;4416135;32;33451;-85
2023/12/29 10:13:46;;;;;;;;;;;;;;;7.67;71.54;99454.09;4405223;32;33534;-89
2023/12/29 10:16:15;;;;;;;;;;;;;;;7.55;71.71;99452.03;4405863;32;34407;-91
2023/12/29 10:18:56;;;;;;;;;;;;;;;7.44;72.34;99455.13;4416086;32;34201;-91
2023/12/29 10:21:28;;;;;;;;;;;;;;;7.78;71.47;99457.84;4416203;32;33972;-90
2023/12/29 10:24:12;;;;;;;;;;;;;;;8.03;70.21;99448.19;4413424;32;34064;-89
2023/12/29 10:26:40;;;;;;;;;;;;;;;8.36;69.19;99457.69;4406436;32;35667;-92
2023/12/29 10:29:07;;;;;;;;;;;;;;;8.23;69.60;99459.97;4403054;32;33744;-89
2023/12/29 10:31:34;;;;;;;;;;;;;;;8.33;69.26;99447.28;4415075;32;33550;-92
2023/12/29 10:34:18;;;;;;;;;;;;;;;8.17;69.58;99451.16;4399411;32;34307;-91
2023/12/29 10:36:46;;;;;;;;;;;;;;;7.91;70.80;99450.44;4400154;32;34996;-89
2023/12/29 10:39:13;;;;;;;;;;;;;;;7.96;71.24;99446.31;4397885;32;33430;-92
2023/12/29 10:41:41;;;;;;;;;;;;;;;8.02;70.63;99439.59;4413132;32;32864;-85
2023/12/29 10:44:08;;;;;;;;;;;;;;;8.40;69.67;99438.88;4392664;32;34211;-92
2023/12/29 10:46:36;;;;;;;;;;;;;;;8.28;70.11;99440.28;4390076;32;34400;-90
2023/12/29 10:49:09;;;;;;;;;;;;;;;8.45;69.64;99432.16;4391145;32;34061;-89
2023/12/29 10:51:37;;;;;;;;;;;;;;;8.54;69.13;99427.19;4395149;32;33229;-87
2023/12/29 10:54:05;;;;;;;;;;;;;;;7.86;72.27;99416.78;4404382;32;34222;-87
2023/12/29 10:56:32;;;;;;;;;;;;;;;8.29;70.80;99421.34;4409795;32;33928;-89
2023/12/29 10:59:04;;;;;;;;;;;;;;;8.67;69.05;99420.63;4415551;32;33563;-89
2023/12/29 11:01:32;;;;;;;;;;;;;;;8.72;68.90;99417.31;4415874;32;33164;-89
2023/12/29 11:04:00;;;;;;;;;;;;;;;8.32;70.32;99412.81;4402898;32;32981;-86
2023/12/29 11:06:28;;;;;;;;;;;;;;;8.67;69.40;99400.81;4404255;32;33909;-90
2023/12/29 11:08:56;;;;;;;;;;;;;;;8.85;68.65;99397.78;4400772;32;33320;-90
2023/12/29 11:11:24;;;;;;;;;;;;;;;9.12;67.75;99392.38;4394626;32;33508;-89
2023/12/29 11:13:51;;;;;;;;;;;;;;;9.18;67.25;99389.06;4414364;32;33984;-90
2023/12/29 11:16:21;;;;;;;;;;;;;;;8.85;68.64;99394.34;4406268;32;33987;-89
2023/12/29 11:18:50;;;;;;;;;;;;;;;8.63;69.86;99396.41;4398719;32;34110;-92
2023/12/29 11:21:17;;;;;;;;;;;;;;;8.81;69.42;99401.16;4409237;32;33340;-90
2023/12/29 11:23:45;;;;;;;;;;;;;;;8.80;69.12;99401.13;4398785;32;32751;-88
2023/12/29 11:26:12;;;;;;;;;;;;;;;8.97;68.51;99397.19;4404745;32;34208;-92
2023/12/29 11:28:39;;;;;;;;;;;;;;;9.33;66.67;99380.75;4399448;32;34123;-90
2023/12/29 11:31:07;;;;;;;;;;;;;;;9.13;67.12;99373.44;4403206;32;33582;-90
2023/12/29 11:33:35;;;;;;;;;;;;;;;9.39;66.12;99362.75;4391061;32;35065;-90
2023/12/29 11:36:07;;;;;;;;;;;;;;;9.25;66.63;99368.53;4401591;32;34109;-92
2023/12/29 11:38:43;;;;;;;;;;;;;;;9.31;66.71;99366.91;4404639;32;34857;-89
2023/12/29 11:41:19;;;;;;;;;;;;;;;9.29;67.06;99358.25;4404069;32;33148;-87
2023/12/29 11:43:55;;;;;;;;;;;;;;;9.30;67.17;99354.81;4400577;32;33728;-88
2023/12/29 11:46:38;;;;;;;;;;;;;;;9.60;65.77;99351.97;4400933;32;34241;-88
2023/12/29 11:49:06;;;;;;;;;;;;;;;9.70;65.08;99352.19;4405881;32;33818;-87
2023/12/29 11:51:33;;;;;;;;;;;;;;;9.45;66.05;99350.81;4405343;32;33283;-86
2023/12/29 11:54:02;;;;;;;;;;;;;;;9.69;65.20;99350.41;4404887;32;35113;-87
2023/12/29 11:56:36;;;;;;;;;;;;;;;9.73;64.81;99354.81;4404364;32;34275;-87
2023/12/29 11:59:13;;;;;;;;;;;;;;;9.95;63.75;99342.25;4412331;32;33578;-87
2023/12/29 12:01:41;;;;;;;;;;;;;;;9.71;64.71;99342.69;4389561;32;32792;-86
2023/12/29 12:04:27;;;;;;;;;;;;;;;9.60;65.14;99345.06;4402895;32;33276;-88
2023/12/29 12:06:55;;;;;;;;;;;;;;;9.36;65.86;99340.28;4402968;32;35327;-85
2023/12/29 12:09:26;;;;;;;;;;;;;;;9.39;65.34;99337.75;4397781;32;34955;-85
2023/12/29 12:11:53;;;;;;;;;;;;;;;9.56;64.77;99340.69;4393481;32;33405;-87
2023/12/29 12:14:39;;;;;;;;;;;;;;;9.62;64.83;99335.63;4404907;32;33482;-93
2023/12/29 12:17:07;;;;;;;;;;;;;;;9.59;64.78;99327.81;4402147;32;35151;-85
2023/12/29 12:19:35;;;;;;;;;;;;;;;9.45;65.36;99334.41;4410415;32;33883;-87
2023/12/29 12:22:02;;;;;;;;;;;;;;;9.49;65.14;99331.03;4417043;32;33982;-87
2023/12/29 12:24:30;;;;;;;;;;;;;;;9.29;65.50;99330.66;4405828;32;33918;-87
2023/12/29 12:26:57;;;;;;;;;;;;;;;9.62;64.39;99333.03;4417009;32;34126;-86
2023/12/29 12:29:25;;;;;;;;;;;;;;;9.37;64.59;99329.09;4405755;32;34555;-87
2023/12/29 12:31:56;;;;;;;;;;;;;;;9.65;63.91;99324.44;4405669;32;32806;-87
2023/12/29 12:34:23;;;;;;;;;;;;;;;9.48;64.52;99313.78;4404135;32;33978;-87
2023/12/29 12:36:52;;;;;;;;;;;;;;;9.61;64.25;99313.16;4416920;32;35088;-86
2023/12/29 12:39:20;;;;;;;;;;;;;;;9.47;64.62;99319.78;4405774;32;34017;-87
2023/12/29 12:41:47;;;;;;;;;;;;;;;9.12;65.69;99319.94;4405658;32;33081;-87
2023/12/29 12:44:14;;;;;;;;;;;;;;;9.35;64.63;99312.66;4417150;32;33861;-87
2023/12/29 12:46:54;;;;;;;;;;;;;;;9.54;64.48;99316.47;4416990;32;35354;-86
2023/12/29 12:49:21;;;;;;;;;;;;;;;9.54;64.61;99319.06;4416246;32;34729;-86
2023/12/29 12:51:52;;;;;;;;;;;;;;;9.57;64.52;99326.03;4396103;32;32962;-88
2023/12/29 12:54:20;;;;;;;;;;;;;;;9.27;65.45;99320.25;4395819;32;33808;-86
2023/12/29 12:56:47;;;;;;;;;;;;;;;9.55;64.75;99325.13;4405559;32;34069;-85
2023/12/29 12:59:16;;;;;;;;;;;;;;;9.07;65.83;99325.88;4395691;32;34984;-89
2023/12/29 13:01:43;;;;;;;;;;;;;;;9.44;64.79;99322.34;4398953;32;34410;-87
2023/12/29 13:04:11;;;;;;;;;;;;;;;9.39;65.00;99329.09;4396360;32;34938;-85